createdAt,value
2023-11-15T00:02:04.406Z,99601.48
2023-11-15T00:04:32.905Z,99610.44
2023-11-15T00:07:01.354Z,99609.02
2023-11-15T00:09:30.701Z,99611.27
2023-11-15T00:11:59.203Z,99595.09
2023-11-15T00:14:27.750Z,99591.00
2023-11-15T00:16:56.432Z,99603.58
2023-11-15T00:19:25.129Z,99599.83
2023-11-15T00:21:53.638Z,99598.61
2023-11-15T00:24:22.248Z,99599.20
2023-11-15T00:26:51.806Z,99599.58
2023-11-15T00:29:20.258Z,99589.94
2023-11-15T00:31:48.824Z,99584.76
2023-11-15T00:34:17.420Z,99576.61
2023-11-15T00:36:46.629Z,99569.49
2023-11-15T00:39:15.135Z,99559.55
2023-11-15T00:41:43.639Z,99552.13
2023-11-15T00:44:12.170Z,99538.19
2023-11-15T00:46:40.781Z,99527.70
2023-11-15T00:49:09.333Z,99523.67
2023-11-15T00:51:37.905Z,99521.05
2023-11-15T00:54:08.079Z,99525.42
2023-11-15T00:56:37.175Z,99530.20
2023-11-15T00:59:06.986Z,99533.60
2023-11-15T01:01:35.952Z,99534.17
2023-11-15T01:04:07.108Z,99536.15
2023-11-15T01:06:35.834Z,99539.11
2023-11-15T01:09:06.601Z,99539.04
2023-11-15T01:11:35.285Z,99534.79
2023-11-15T01:14:04.410Z,99527.61
2023-11-15T01:16:33.001Z,99538.42
2023-11-15T01:19:02.065Z,99550.21
2023-11-15T01:21:30.641Z,99550.70
2023-11-15T01:23:59.312Z,99552.44
2023-11-15T01:26:29.334Z,99553.50
2023-11-15T01:28:59.210Z,99561.56
2023-11-15T01:31:28.098Z,99561.84
2023-11-15T01:33:56.769Z,99553.03
2023-11-15T01:36:25.260Z,99531.36
2023-11-15T01:38:53.724Z,99528.66
2023-11-15T01:41:22.507Z,99536.14
2023-11-15T01:43:52.439Z,99535.54
2023-11-15T01:46:22.119Z,99535.47
2023-11-15T01:48:51.702Z,99529.10
2023-11-15T01:51:20.227Z,99526.80
2023-11-15T01:53:49.257Z,99541.55
2023-11-15T01:56:17.922Z,99541.17
2023-11-15T01:58:46.983Z,99526.15
2023-11-15T02:01:17.315Z,99523.23
2023-11-15T02:03:46.034Z,99528.31
2023-11-15T02:06:14.719Z,99532.49
2023-11-15T02:08:43.349Z,99537.18
2023-11-15T02:11:11.943Z,99538.70
2023-11-15T02:13:40.568Z,99532.13
2023-11-15T02:16:11.564Z,99521.40
2023-11-15T02:18:40.354Z,99509.05
2023-11-15T02:21:08.891Z,99500.11
2023-11-15T02:23:45.736Z,99504.23
2023-11-15T02:26:14.435Z,99508.20
2023-11-15T02:28:43.034Z,99512.66
2023-11-15T02:31:13.387Z,99514.68
2023-11-15T02:33:42.022Z,99516.90
2023-11-15T02:36:10.611Z,99513.61
2023-11-15T02:38:41.314Z,99510.52
2023-11-15T02:41:10.781Z,99500.05
2023-11-15T02:43:39.514Z,99502.38
2023-11-15T02:46:08.312Z,99504.42
2023-11-15T02:48:36.925Z,99502.73
2023-11-15T02:51:05.764Z,99507.14
2023-11-15T02:56:20.022Z,99507.16
2023-11-15T02:58:48.561Z,99516.70
2023-11-15T03:01:17.682Z,99514.61
2023-11-15T03:03:46.331Z,99517.27
2023-11-15T03:06:15.424Z,99518.91
2023-11-15T03:08:44.048Z,99519.52
2023-11-15T03:11:12.581Z,99510.60
2023-11-15T03:13:41.152Z,99509.80
2023-11-15T03:16:09.831Z,99512.21
2023-11-15T03:18:38.541Z,99521.50
2023-11-15T03:21:07.803Z,99522.40
2023-11-15T03:23:36.392Z,99524.98
2023-11-15T03:26:05.629Z,99523.95
2023-11-15T03:28:35.430Z,99529.10
2023-11-15T03:31:04.188Z,99528.27
2023-11-15T03:33:33.525Z,99528.92
2023-11-15T03:36:02.150Z,99522.34
2023-11-15T03:38:30.707Z,99531.05
2023-11-15T03:40:59.239Z,99524.33
2023-11-15T03:43:28.041Z,99519.72
2023-11-15T03:45:57.333Z,99527.16
2023-11-15T03:48:27.788Z,99533.06
2023-11-15T03:50:56.449Z,99531.89
2023-11-15T03:53:25.155Z,99534.36
2023-11-15T03:55:54.475Z,99537.48
2023-11-15T03:58:22.982Z,99536.21
2023-11-15T04:00:51.704Z,99536.96
2023-11-15T04:03:23.487Z,99531.71
2023-11-15T04:05:52.560Z,99534.70
2023-11-15T04:08:21.108Z,99531.70
2023-11-15T04:10:50.413Z,99521.23
2023-11-15T04:13:21.012Z,99514.05
2023-11-15T04:15:49.711Z,99514.46
2023-11-15T04:18:18.654Z,99514.58
2023-11-15T04:20:47.166Z,99516.34
2023-11-15T04:23:16.215Z,99520.88
2023-11-15T04:25:44.720Z,99517.63
2023-11-15T04:28:14.001Z,99517.26
2023-11-15T04:30:43.104Z,99515.74
2023-11-15T04:33:13.598Z,99517.36
2023-11-15T04:35:42.766Z,99524.83
2023-11-15T04:38:11.241Z,99537.02
2023-11-15T04:40:39.776Z,99544.86
2023-11-15T04:43:08.276Z,99548.86
2023-11-15T04:45:36.801Z,99550.27
2023-11-15T04:48:06.393Z,99547.69
2023-11-15T04:50:34.937Z,99536.39
2023-11-15T04:53:07.327Z,99533.27
2023-11-15T04:55:36.480Z,99532.48
2023-11-15T04:58:04.937Z,99528.18
2023-11-15T05:00:33.389Z,99520.02
2023-11-15T05:03:01.906Z,99509.67
2023-11-15T05:05:30.780Z,99509.83
2023-11-15T05:07:59.423Z,99510.44
2023-11-15T05:10:27.822Z,99513.36
2023-11-15T05:12:56.540Z,99518.30
2023-11-15T05:15:24.965Z,99516.05
2023-11-15T05:17:53.482Z,99518.02
2023-11-15T05:20:22.034Z,99518.70
2023-11-15T05:22:50.567Z,99527.05
2023-11-15T05:25:19.963Z,99530.60
2023-11-15T05:27:49.406Z,99522.52
2023-11-15T05:30:17.988Z,99517.27
2023-11-15T05:32:46.757Z,99525.84
2023-11-15T05:35:15.951Z,99526.31
2023-11-15T05:37:44.462Z,99518.45
2023-11-15T05:40:16.808Z,99517.85
2023-11-15T05:42:46.117Z,99522.33
2023-11-15T05:45:15.916Z,99525.70
2023-11-15T05:47:45.665Z,99522.51
2023-11-15T05:50:14.276Z,99506.70
2023-11-15T05:52:42.820Z,99511.42
2023-11-15T05:55:14.515Z,99517.86
2023-11-15T05:57:42.931Z,99517.63
2023-11-15T06:00:20.046Z,99514.87
2023-11-15T06:02:50.258Z,99518.20
2023-11-15T06:05:20.603Z,99523.10
2023-11-15T06:07:49.223Z,99535.68
2023-11-15T06:10:17.985Z,99538.98
2023-11-15T06:12:46.514Z,99532.55
2023-11-15T06:15:15.629Z,99522.27
2023-11-15T06:17:44.520Z,99519.56
2023-11-15T06:20:13.403Z,99518.44
2023-11-15T06:22:41.836Z,99518.96
2023-11-15T06:25:10.609Z,99527.69
2023-11-15T06:27:40.046Z,99518.92
2023-11-15T06:30:10.892Z,99514.39
2023-11-15T06:32:40.074Z,99525.12
2023-11-15T06:35:10.285Z,99526.90
2023-11-15T06:37:38.841Z,99523.83
2023-11-15T06:40:10.166Z,99509.31
2023-11-15T06:42:38.653Z,99504.57
2023-11-15T06:45:08.063Z,99503.86
2023-11-15T06:47:39.706Z,99502.50
2023-11-15T06:50:09.153Z,99494.89
2023-11-15T06:52:41.577Z,99495.30
2023-11-15T06:55:13.383Z,99491.39
2023-11-15T06:57:42.930Z,99486.20
2023-11-15T07:00:14.304Z,99495.16
2023-11-15T07:02:43.435Z,99501.36
2023-11-15T07:05:12.489Z,99485.58
2023-11-15T07:07:41.636Z,99472.63
2023-11-15T07:10:11.161Z,99474.79
2023-11-15T07:12:41.368Z,99481.59
2023-11-15T07:15:15.837Z,99483.67
2023-11-15T07:17:45.985Z,99486.64
2023-11-15T07:20:16.174Z,99489.48
2023-11-15T07:22:46.022Z,99493.89
2023-11-15T07:25:16.538Z,99493.29
2023-11-15T07:27:48.085Z,99493.30
2023-11-15T07:30:16.906Z,99489.23
2023-11-15T07:32:45.443Z,99479.05
2023-11-15T07:35:13.929Z,99474.63
2023-11-15T07:37:42.484Z,99475.85
2023-11-15T07:40:14.371Z,99491.31
2023-11-15T07:42:43.129Z,99502.67
2023-11-15T07:45:11.723Z,99493.07
2023-11-15T07:47:41.825Z,99495.95
2023-11-15T07:50:12.922Z,99485.20
2023-11-15T07:52:42.667Z,99476.70
2023-11-15T07:55:12.038Z,99483.30
2023-11-15T07:57:40.590Z,99479.30
2023-11-15T08:00:12.717Z,99467.65
2023-11-15T08:02:44.007Z,99465.45
2023-11-15T08:05:12.752Z,99460.41
2023-11-15T08:07:41.225Z,99454.95
2023-11-15T08:10:14.636Z,99450.55
2023-11-15T08:12:45.970Z,99445.30
2023-11-15T08:15:16.365Z,99443.25
2023-11-15T08:17:48.551Z,99439.63
2023-11-15T08:20:18.946Z,99437.41
2023-11-15T08:22:48.184Z,99430.30
2023-11-15T08:25:16.832Z,99425.34
2023-11-15T08:27:45.370Z,99426.98
2023-11-15T08:30:18.663Z,99422.02
2023-11-15T08:32:49.924Z,99423.15
2023-11-15T08:35:18.766Z,99427.24
2023-11-15T08:37:47.445Z,99423.54
2023-11-15T08:40:26.417Z,99422.71
2023-11-15T08:42:58.650Z,99416.87
2023-11-15T08:45:27.712Z,99414.00
2023-11-15T08:47:59.409Z,99412.67
2023-11-15T08:50:30.468Z,99408.65
2023-11-15T08:53:00.086Z,99407.69
2023-11-15T08:55:28.713Z,99407.65
2023-11-15T08:57:58.403Z,99407.95
2023-11-15T09:00:26.879Z,99411.19
2023-11-15T09:02:55.414Z,99417.10
2023-11-15T09:05:26.115Z,99412.48
2023-11-15T09:07:54.769Z,99408.46
2023-11-15T09:10:24.020Z,99411.63
2023-11-15T09:12:53.939Z,99411.16
2023-11-15T09:15:25.804Z,99407.77
2023-11-15T09:17:54.567Z,99402.23
2023-11-15T09:20:27.829Z,99397.18
2023-11-15T09:22:59.303Z,99394.80
2023-11-15T09:25:31.592Z,99393.38
2023-11-15T09:28:04.000Z,99386.63
2023-11-15T09:30:33.298Z,99380.83
2023-11-15T09:33:06.666Z,99384.33
2023-11-15T09:38:06.549Z,99375.17
2023-11-15T09:40:35.031Z,99365.19
2023-11-15T09:43:03.713Z,99355.95
2023-11-15T09:45:37.288Z,99355.27
2023-11-15T09:48:10.516Z,99354.17
2023-11-15T09:50:45.618Z,99363.70
2023-11-15T09:53:14.100Z,99361.18
2023-11-15T09:55:43.430Z,99359.91
2023-11-15T09:58:14.650Z,99358.73
2023-11-15T10:00:43.157Z,99354.28
2023-11-15T10:03:12.293Z,99355.21
2023-11-15T10:05:43.641Z,99347.58
2023-11-15T10:08:15.135Z,99356.22
2023-11-15T10:10:47.740Z,99365.85
2023-11-15T10:13:19.558Z,99368.27
2023-11-15T10:15:48.499Z,99371.77
2023-11-15T10:18:30.836Z,99363.98
2023-11-15T10:21:13.247Z,99358.80
2023-11-15T10:23:43.427Z,99356.17
2023-11-15T10:26:13.075Z,99352.31
2023-11-15T10:28:41.945Z,99349.58
2023-11-15T10:31:16.113Z,99349.29
2023-11-15T10:33:52.601Z,99340.36
2023-11-15T10:36:23.905Z,99334.98
2023-11-15T10:38:57.377Z,99332.02
2023-11-15T10:41:30.885Z,99326.70
2023-11-15T10:44:00.180Z,99317.40
2023-11-15T10:46:32.566Z,99322.09
2023-11-15T10:49:03.199Z,99322.66
2023-11-15T10:51:43.768Z,99318.29
2023-11-15T10:54:15.177Z,99314.69
2023-11-15T10:56:45.294Z,99314.05
2023-11-15T10:59:14.946Z,99310.96
2023-11-15T11:01:46.349Z,99312.80
2023-11-15T11:04:17.051Z,99316.29
2023-11-15T11:07:11.571Z,99321.20
2023-11-15T11:10:40.505Z,99319.00
2023-11-15T11:13:25.070Z,99320.73
2023-11-15T11:15:53.622Z,99320.66
2023-11-15T11:18:23.620Z,99321.47
2023-11-15T11:21:02.884Z,99318.79
2023-11-15T11:23:35.338Z,99313.36
2023-11-15T11:26:37.146Z,99313.31
2023-11-15T11:29:05.877Z,99310.02
2023-11-15T11:31:34.397Z,99310.19
2023-11-15T11:34:11.174Z,99311.44
2023-11-15T11:36:51.557Z,99309.67
2023-11-15T11:39:47.631Z,99306.81
2023-11-15T11:42:26.502Z,99308.10
2023-11-15T11:44:58.232Z,99308.15
2023-11-15T11:47:26.812Z,99309.09
2023-11-15T11:49:55.296Z,99308.71
2023-11-15T11:52:24.024Z,99308.79
2023-11-15T11:54:55.191Z,99307.52
2023-11-15T11:57:26.242Z,99307.77
2023-11-15T12:00:27.833Z,99309.31
2023-11-15T12:03:01.132Z,99317.55
2023-11-15T12:05:34.614Z,99322.81
2023-11-15T12:08:04.207Z,99327.72
2023-11-15T12:10:32.737Z,99325.56
2023-11-15T12:13:07.545Z,99328.16
2023-11-15T12:15:40.277Z,99328.02
2023-11-15T12:18:11.455Z,99334.13
2023-11-15T12:20:41.460Z,99331.84
2023-11-15T12:23:16.104Z,99336.97
2023-11-15T12:25:56.849Z,99332.67
2023-11-15T12:28:27.739Z,99335.56
2023-11-15T12:30:59.249Z,99343.92
2023-11-15T12:33:28.338Z,99352.36
2023-11-15T12:35:58.391Z,99352.61
2023-11-15T12:38:27.131Z,99351.30
2023-11-15T12:41:06.973Z,99349.89
2023-11-15T12:43:36.682Z,99354.73
2023-11-15T12:46:21.502Z,99359.30
2023-11-15T12:48:51.895Z,99365.84
2023-11-15T12:51:20.574Z,99360.61
2023-11-15T12:53:49.118Z,99360.20
2023-11-15T12:56:20.493Z,99361.41
2023-11-15T12:58:49.847Z,99360.42
2023-11-15T13:01:20.760Z,99356.77
2023-11-15T13:03:57.987Z,99357.30
2023-11-15T13:06:30.895Z,99355.95
2023-11-15T13:09:04.436Z,99358.14
2023-11-15T13:11:33.005Z,99363.36
2023-11-15T13:14:01.662Z,99365.86
2023-11-15T13:16:30.180Z,99366.92
2023-11-15T13:18:58.589Z,99372.14
2023-11-15T13:21:27.619Z,99373.42
2023-11-15T13:23:57.042Z,99382.59
2023-11-15T13:26:26.269Z,99386.83
2023-11-15T13:28:54.947Z,99386.58
2023-11-15T13:31:26.096Z,99382.37
2023-11-15T13:33:57.414Z,99380.74
2023-11-15T13:36:28.876Z,99382.26
2023-11-15T13:38:57.456Z,99378.76
2023-11-15T13:41:26.326Z,99380.46
2023-11-15T13:43:55.101Z,99381.98
2023-11-15T13:46:24.700Z,99391.27
2023-11-15T13:48:54.582Z,99390.61
2023-11-15T13:51:23.995Z,99393.18
2023-11-15T13:53:52.672Z,99392.50
2023-11-15T13:56:21.277Z,99393.97
2023-11-15T13:58:49.941Z,99394.46
2023-11-15T14:01:18.829Z,99399.63
2023-11-15T14:03:47.388Z,99401.31
2023-11-15T14:06:15.977Z,99403.55
2023-11-15T14:08:52.102Z,99404.11
2023-11-15T14:11:30.758Z,99407.92
2023-11-15T14:13:59.509Z,99410.80
2023-11-15T14:16:28.812Z,99415.61
2023-11-15T14:18:57.481Z,99416.00
2023-11-15T14:21:26.163Z,99418.70
2023-11-15T14:23:57.631Z,99426.47
2023-11-15T14:26:26.827Z,99434.46
2023-11-15T14:28:55.279Z,99437.23
2023-11-15T14:31:24.724Z,99437.63
2023-11-15T14:33:53.369Z,99439.98
2023-11-15T14:36:22.327Z,99441.49
2023-11-15T14:38:53.082Z,99444.41
2023-11-15T14:41:23.759Z,99448.36
2023-11-15T14:43:52.694Z,99445.91
2023-11-15T14:46:24.719Z,99443.08
2023-11-15T14:48:54.003Z,99442.69
2023-11-15T14:51:22.708Z,99450.03
2023-11-15T14:53:56.523Z,99449.55
2023-11-15T14:56:25.398Z,99450.64
2023-11-15T14:58:55.330Z,99455.68
2023-11-15T15:01:25.796Z,99453.40
2023-11-15T15:03:54.510Z,99451.89
2023-11-15T15:06:23.278Z,99450.44
2023-11-15T15:08:52.115Z,99449.80
2023-11-15T15:11:20.614Z,99447.80
2023-11-15T15:13:49.051Z,99449.83
2023-11-15T15:16:22.362Z,99449.65
2023-11-15T15:18:52.873Z,99455.08
2023-11-15T15:21:22.306Z,99457.37
2023-11-15T15:23:50.865Z,99460.36
2023-11-15T15:26:21.924Z,99461.47
2023-11-15T15:28:55.072Z,99462.97
2023-11-15T15:31:23.832Z,99461.86
2023-11-15T15:33:52.421Z,99469.25
2023-11-15T15:36:22.914Z,99471.22
2023-11-15T15:38:52.312Z,99470.30
2023-11-15T15:41:25.293Z,99473.45
2023-11-15T15:43:56.467Z,99473.92
2023-11-15T15:46:26.321Z,99474.64
2023-11-15T15:48:54.995Z,99471.55
2023-11-15T15:51:25.492Z,99471.38
2023-11-15T15:53:54.245Z,99477.27
2023-11-15T15:56:23.419Z,99480.48
2023-11-15T15:58:51.854Z,99480.84
2023-11-15T16:01:20.525Z,99479.86
2023-11-15T16:03:49.148Z,99484.33
2023-11-15T16:06:22.954Z,99484.97
2023-11-15T16:08:51.602Z,99496.56
2023-11-15T16:11:23.596Z,99500.73
2023-11-15T16:13:52.261Z,99502.32
2023-11-15T16:16:20.768Z,99508.78
2023-11-15T16:18:49.491Z,99505.91
2023-11-15T16:21:18.091Z,99507.20
2023-11-15T16:23:46.871Z,99511.13
2023-11-15T16:26:18.149Z,99519.38
2023-11-15T16:28:47.271Z,99523.60
2023-11-15T16:31:16.846Z,99526.92
2023-11-15T16:33:45.765Z,99534.28
2023-11-15T16:36:14.287Z,99542.29
2023-11-15T16:38:44.996Z,99545.62
2023-11-15T16:41:16.929Z,99547.89
2023-11-15T16:43:45.428Z,99547.36
2023-11-15T16:46:13.868Z,99551.05
2023-11-15T16:48:44.940Z,99562.51
2023-11-15T16:51:13.889Z,99566.04
2023-11-15T16:53:42.391Z,99571.98
2023-11-15T16:56:11.580Z,99575.09
2023-11-15T16:58:40.054Z,99580.80
2023-11-15T17:01:09.326Z,99588.34
2023-11-15T17:03:37.965Z,99590.54
2023-11-15T17:06:07.032Z,99593.57
2023-11-15T17:08:36.080Z,99593.27
2023-11-15T17:11:05.019Z,99589.79
2023-11-15T17:13:34.556Z,99594.33
2023-11-15T17:16:04.069Z,99591.19
2023-11-15T17:18:32.626Z,99591.54
2023-11-15T17:21:01.273Z,99588.81
2023-11-15T17:23:29.969Z,99585.60
2023-11-15T17:25:59.564Z,99590.02
2023-11-15T17:31:15.988Z,99593.02
2023-11-15T17:33:46.726Z,99593.44
2023-11-15T17:36:15.454Z,99597.85
2023-11-15T17:38:44.006Z,99601.44
2023-11-15T17:41:15.257Z,99602.16
2023-11-15T17:43:43.666Z,99608.04
2023-11-15T17:46:12.994Z,99614.52
2023-11-15T17:48:41.508Z,99615.15
2023-11-15T17:51:10.075Z,99616.96
2023-11-15T17:53:39.125Z,99619.84
2023-11-15T17:56:08.675Z,99623.79
2023-11-15T17:58:37.112Z,99629.41
2023-11-15T18:01:06.357Z,99630.61
2023-11-15T18:03:35.026Z,99633.52
2023-11-15T18:06:04.953Z,99635.85
2023-11-15T18:08:33.919Z,99646.25
2023-11-15T18:11:05.111Z,99643.89
2023-11-15T18:13:33.688Z,99643.77
2023-11-15T18:16:02.903Z,99644.06
2023-11-15T18:18:31.417Z,99642.96
2023-11-15T18:20:59.860Z,99644.92
2023-11-15T18:23:28.511Z,99649.02
2023-11-15T18:25:58.108Z,99656.34
2023-11-15T18:28:27.500Z,99655.64
2023-11-15T18:30:56.055Z,99657.13
2023-11-15T18:33:25.503Z,99657.20
2023-11-15T18:35:54.012Z,99660.45
2023-11-15T18:38:22.525Z,99662.95
2023-11-15T18:40:51.465Z,99669.92
2023-11-15T18:43:20.028Z,99670.94
2023-11-15T18:45:48.608Z,99674.07
2023-11-15T18:48:17.178Z,99678.49
2023-11-15T18:50:45.694Z,99684.48
2023-11-15T18:53:14.153Z,99689.54
2023-11-15T18:55:43.437Z,99692.79
2023-11-15T18:58:11.953Z,99695.33
2023-11-15T19:00:40.494Z,99700.48
2023-11-15T19:03:09.178Z,99705.77
2023-11-15T19:05:39.138Z,99709.07
2023-11-15T19:08:07.779Z,99713.65
2023-11-15T19:10:36.183Z,99723.00
2023-11-15T19:13:05.180Z,99727.59
2023-11-15T19:15:35.283Z,99731.63
2023-11-15T19:18:05.141Z,99734.03
2023-11-15T19:20:35.669Z,99735.56
2023-11-15T19:23:04.560Z,99737.48
2023-11-15T19:25:33.159Z,99739.70
2023-11-15T19:28:01.820Z,99737.44
2023-11-15T19:30:30.387Z,99741.45
2023-11-15T19:33:00.166Z,99746.78
2023-11-15T19:35:31.589Z,99753.55
2023-11-15T19:38:00.283Z,99755.84
2023-11-15T19:40:28.903Z,99757.23
2023-11-15T19:42:57.431Z,99756.39
2023-11-15T19:45:25.943Z,99759.96
2023-11-15T19:47:54.420Z,99758.05
2023-11-15T19:50:23.093Z,99758.10
2023-11-15T19:52:52.243Z,99763.50
2023-11-15T19:55:20.673Z,99769.58
2023-11-15T19:57:49.125Z,99775.70
2023-11-15T20:00:18.328Z,99780.46
2023-11-15T20:02:49.293Z,99779.51
2023-11-15T20:05:18.453Z,99785.20
2023-11-15T20:07:47.230Z,99788.39
2023-11-15T20:10:15.659Z,99791.70
2023-11-15T20:12:44.840Z,99799.54
2023-11-15T20:15:16.363Z,99803.20
2023-11-15T20:17:46.610Z,99806.67
2023-11-15T20:20:17.767Z,99809.63
2023-11-15T20:22:52.071Z,99813.75
2023-11-15T20:25:22.421Z,99819.27
2023-11-15T20:27:50.916Z,99820.16
2023-11-15T20:30:22.649Z,99821.14
2023-11-15T20:32:55.480Z,99824.83
2023-11-15T20:35:25.139Z,99828.31
2023-11-15T20:37:53.781Z,99833.02
2023-11-15T20:40:23.516Z,99827.80
2023-11-15T20:42:54.255Z,99831.80
2023-11-15T20:45:25.948Z,99835.08
2023-11-15T20:47:55.141Z,99840.88
2023-11-15T20:50:23.988Z,99841.64
2023-11-15T20:52:52.488Z,99847.66
2023-11-15T20:55:25.426Z,99846.57
2023-11-15T20:58:00.357Z,99847.06
2023-11-15T21:00:31.053Z,99847.95
2023-11-15T21:02:59.910Z,99852.45
2023-11-15T21:05:29.038Z,99851.20
2023-11-15T21:07:57.830Z,99852.95
2023-11-15T21:10:27.235Z,99854.58
2023-11-15T21:12:55.712Z,99858.64
2023-11-15T21:15:24.424Z,99872.06
2023-11-15T21:17:53.021Z,99872.45
2023-11-15T21:20:23.057Z,99877.40
2023-11-15T21:22:51.543Z,99872.99
2023-11-15T21:25:20.122Z,99866.15
2023-11-15T21:27:48.612Z,99860.80
2023-11-15T21:39:09.839Z,99869.67
2023-11-15T21:41:38.412Z,99873.85
2023-11-15T21:44:06.879Z,99871.11
2023-11-15T21:46:35.426Z,99875.47
2023-11-15T21:49:03.858Z,99876.31
2023-11-15T21:51:32.745Z,99882.51
2023-11-15T21:54:01.900Z,99878.80
2023-11-15T21:56:30.504Z,99881.48
2023-11-15T21:58:59.207Z,99888.42
2023-11-15T22:01:27.880Z,99889.52
2023-11-15T22:03:56.440Z,99895.31
2023-11-15T22:06:26.373Z,99887.85
2023-11-15T22:08:56.802Z,99888.15
2023-11-15T22:11:25.686Z,99887.73
2023-11-15T22:13:54.248Z,99888.73
2023-11-15T22:16:22.758Z,99880.86
2023-11-15T22:18:51.270Z,99876.61
2023-11-15T22:21:20.438Z,99876.39
2023-11-15T22:23:49.090Z,99872.98
2023-11-15T22:26:17.557Z,99872.64
2023-11-15T22:28:46.402Z,99872.58
2023-11-15T22:31:15.318Z,99869.71
2023-11-15T22:33:43.947Z,99870.89
2023-11-15T22:36:12.437Z,99872.02
2023-11-15T22:38:41.100Z,99881.25
2023-11-15T22:41:09.532Z,99884.16
2023-11-15T22:43:38.567Z,99886.32
2023-11-15T22:46:07.611Z,99885.55
2023-11-15T22:48:39.237Z,99881.02
2023-11-15T22:51:08.021Z,99882.07
2023-11-15T22:53:36.450Z,99886.27
2023-11-15T22:56:05.418Z,99887.73
2023-11-15T22:58:36.081Z,99884.04
2023-11-15T23:01:05.170Z,99882.79
2023-11-15T23:03:34.027Z,99888.86
2023-11-15T23:06:02.653Z,99888.43
2023-11-15T23:08:31.099Z,99889.91
2023-11-15T23:11:00.500Z,99893.17
2023-11-15T23:13:30.405Z,99893.20
2023-11-15T23:15:58.887Z,99895.72
2023-11-15T23:18:27.390Z,99899.63
2023-11-15T23:20:58.932Z,99903.89
2023-11-15T23:23:27.428Z,99905.93
2023-11-15T23:25:56.147Z,99909.02
2023-11-15T23:28:24.734Z,99912.45
2023-11-15T23:30:56.849Z,99912.08
2023-11-15T23:33:25.851Z,99912.40
2023-11-15T23:35:54.420Z,99915.95
2023-11-15T23:38:23.623Z,99914.70
2023-11-15T23:40:55.167Z,99918.30
2023-11-15T23:43:26.461Z,99920.46
2023-11-15T23:45:55.975Z,99922.00
2023-11-15T23:48:24.758Z,99925.04
2023-11-15T23:50:54.642Z,99926.24
2023-11-15T23:53:23.110Z,99926.46
2023-11-15T23:55:51.526Z,99928.09
2023-11-15T23:58:20.855Z,99927.13
